Time;durP1;ratioP1;P1;durP2;ratioP2;P2;SDS_P1;SDS_P2;PMS_P1;PMS_P2;Temp;Humidity;BMP_temperature;BMP_pressure;BME280_temperature;BME280_humidity;BME280_pressure;Samples;Min_cycle;Max_cycle;Signal;HPM_P1;HPM_P2
2023/09/21 00:00:12;;;;;;;9.82;9.52;;;15.90;99.90;;;;;;6295483;22;20193;-80
2023/09/21 00:02:41;;;;;;;9.65;9.35;;;15.90;99.90;;;;;;6294725;22;20205;-81
2023/09/21 00:05:09;;;;;;;9.45;9.15;;;15.90;99.90;;;;;;6295075;22;20248;-80
2023/09/21 00:07:36;;;;;;;9.73;9.43;;;15.90;99.90;;;;;;6295807;22;20205;-80
2023/09/21 00:10:06;;;;;;;9.80;9.50;;;15.90;99.90;;;;;;6294518;22;20202;-81
2023/09/21 00:12:34;;;;;;;9.77;9.48;;;15.90;99.90;;;;;;6295536;22;20197;-80
2023/09/21 00:15:20;;;;;;;9.80;9.50;;;15.90;99.90;;;;;;6294991;22;20212;-80
2023/09/21 00:17:53;;;;;;;9.90;9.60;;;15.90;99.90;;;;;;6296120;22;20259;-81
2023/09/21 00:20:23;;;;;;;9.32;9.02;;;15.90;99.90;;;;;;6295473;22;20213;-81
2023/09/21 00:22:51;;;;;;;9.70;9.40;;;15.90;99.90;;;;;;6294369;22;20198;-81
2023/09/21 00:25:19;;;;;;;9.70;9.40;;;15.80;99.90;;;;;;6295015;22;20205;-81
2023/09/21 00:27:46;;;;;;;9.65;9.35;;;15.70;99.90;;;;;;6294370;22;20220;-82
2023/09/21 00:30:14;;;;;;;9.77;9.48;;;15.70;99.90;;;;;;6294863;22;20194;-81
2023/09/21 00:32:41;;;;;;;9.50;9.20;;;15.60;99.90;;;;;;6294591;22;20252;-80
2023/09/21 00:35:12;;;;;;;9.82;9.52;;;15.60;99.90;;;;;;6295130;22;20204;-81
2023/09/21 00:37:40;;;;;;;9.40;9.10;;;15.60;99.90;;;;;;6291148;22;20197;-80
2023/09/21 00:40:23;;;;;;;9.43;9.13;;;15.50;99.90;;;;;;6290619;22;20236;-79
2023/09/21 00:42:51;;;;;;;9.60;9.30;;;15.50;99.90;;;;;;6286663;22;20216;-79
2023/09/21 00:45:20;;;;;;;9.68;9.38;;;15.50;99.90;;;;;;6290231;22;20209;-80
2023/09/21 00:47:51;;;;;;;9.60;9.30;;;15.50;99.90;;;;;;6290701;22;20283;-80
2023/09/21 00:50:23;;;;;;;9.40;9.10;;;15.50;99.90;;;;;;6290629;22;20196;-80
2023/09/21 00:52:52;;;;;;;9.80;9.50;;;15.50;99.90;;;;;;6290996;22;20216;-80
2023/09/21 00:55:23;;;;;;;9.60;9.30;;;15.60;99.90;;;;;;6290861;22;20201;-80
2023/09/21 00:57:55;;;;;;;9.73;9.43;;;15.60;99.90;;;;;;6290309;22;20199;-79
2023/09/21 01:00:26;;;;;;;9.90;9.60;;;15.60;99.90;;;;;;6290169;22;20241;-80
2023/09/21 01:02:57;;;;;;;9.68;9.38;;;15.60;99.90;;;;;;6290036;22;20255;-80
2023/09/21 01:05:26;;;;;;;9.65;9.35;;;15.60;99.90;;;;;;6290568;22;20206;-80
2023/09/21 01:07:55;;;;;;;9.45;9.15;;;15.60;99.90;;;;;;6290389;22;20204;-80
2023/09/21 01:10:24;;;;;;;9.88;9.57;;;15.60;99.90;;;;;;6290026;22;20206;-80
2023/09/21 01:12:51;;;;;;;9.77;9.48;;;15.70;99.90;;;;;;6292351;22;20201;-80
2023/09/21 01:15:20;;;;;;;9.80;9.50;;;15.70;99.90;;;;;;6296519;22;20265;-80
2023/09/21 01:17:48;;;;;;;9.38;9.07;;;15.60;99.90;;;;;;6295703;22;20261;-81
2023/09/21 01:20:19;;;;;;;9.63;9.32;;;15.60;99.90;;;;;;6295795;22;20252;-81
2023/09/21 01:22:58;;;;;;;9.60;9.30;;;15.60;99.90;;;;;;6296476;22;20229;-80
2023/09/21 01:25:27;;;;;;;9.40;9.10;;;15.50;99.90;;;;;;6295702;22;20204;-80
2023/09/21 01:27:55;;;;;;;9.77;9.48;;;15.40;99.90;;;;;;6295503;22;20267;-80
2023/09/21 01:30:22;;;;;;;9.75;9.45;;;15.40;99.90;;;;;;6294726;22;20275;-79
2023/09/21 01:32:50;;;;;;;9.70;9.40;;;15.40;99.90;;;;;;6294281;22;20232;-81
2023/09/21 01:35:18;;;;;;;9.60;9.30;;;15.40;99.90;;;;;;6294726;22;20201;-80
2023/09/21 01:37:46;;;;;;;9.70;9.40;;;15.30;99.90;;;;;;6294409;22;20212;-81
2023/09/21 01:40:15;;;;;;;9.63;9.32;;;15.30;99.90;;;;;;6294673;22;20201;-80
2023/09/21 01:42:44;;;;;;;9.95;9.65;;;15.30;99.90;;;;;;6294704;22;20205;-80
2023/09/21 01:45:14;;;;;;;9.60;9.30;;;15.30;99.90;;;;;;6294006;22;20217;-82
2023/09/21 01:47:42;;;;;;;9.40;9.10;;;15.30;99.90;;;;;;6293986;22;20280;-80
2023/09/21 01:50:12;;;;;;;9.77;9.48;;;15.40;99.90;;;;;;6294759;22;20209;-81
2023/09/21 01:52:39;;;;;;;9.70;9.40;;;15.40;99.90;;;;;;6297151;22;20197;-80
2023/09/21 07:54:42;;;;;;;10.73;10.43;;;19.20;99.90;;;;;;6212315;22;20202;-79
2023/09/21 07:57:09;;;;;;;10.85;10.55;;;19.30;99.90;;;;;;6231010;23;20214;-81
2023/09/21 07:59:36;;;;;;;10.80;10.50;;;19.50;99.90;;;;;;6234228;23;20199;-80
2023/09/21 08:02:03;;;;;;;11.02;10.73;;;19.60;99.90;;;;;;6232932;23;20195;-81
2023/09/21 08:04:30;;;;;;;11.15;10.85;;;19.70;99.90;;;;;;6234624;23;20203;-81
2023/09/21 08:06:59;;;;;;;10.98;10.68;;;19.90;99.90;;;;;;6233918;23;20327;-81
2023/09/21 08:09:26;;;;;;;11.40;11.00;;;20.10;99.90;;;;;;6234601;23;20199;-81
2023/09/21 08:11:55;;;;;;;11.45;11.05;;;20.20;99.90;;;;;;6233835;23;20224;-81
2023/09/21 08:14:23;;;;;;;11.05;10.75;;;20.30;99.90;;;;;;6233307;23;20206;-81
2023/09/21 08:16:53;;;;;;;11.10;10.80;;;20.40;99.90;;;;;;6232879;23;20203;-82
2023/09/21 08:19:20;;;;;;;10.93;10.63;;;20.60;99.90;;;;;;6233698;23;20183;-81
2023/09/21 08:21:47;;;;;;;11.32;10.98;;;20.60;99.90;;;;;;6234993;23;20203;-81
2023/09/21 08:24:14;;;;;;;11.18;10.88;;;20.70;99.90;;;;;;6234341;23;20206;-81
2023/09/21 08:26:42;;;;;;;11.10;10.80;;;20.80;99.90;;;;;;6234086;23;20233;-80
2023/09/21 08:29:11;;;;;;;11.18;10.88;;;21.00;99.90;;;;;;6234975;23;20280;-81
2023/09/21 08:31:40;;;;;;;11.13;10.82;;;21.00;99.90;;;;;;6234080;23;20260;-81
2023/09/21 08:34:07;;;;;;;11.10;10.80;;;21.00;99.90;;;;;;6234187;22;20210;-81
2023/09/21 08:36:34;;;;;;;11.15;10.85;;;21.00;99.90;;;;;;6234125;23;20195;-81
2023/09/21 08:39:02;;;;;;;10.82;10.52;;;21.10;99.90;;;;;;6233587;23;20203;-80
2023/09/21 08:41:31;;;;;;;11.18;10.88;;;21.20;99.90;;;;;;6233497;23;20191;-81
2023/09/21 08:43:59;;;;;;;11.05;10.75;;;21.30;99.90;;;;;;6233936;23;20203;-81
2023/09/21 08:46:28;;;;;;;10.80;10.50;;;21.40;99.90;;;;;;6233269;23;20199;-81
2023/09/21 08:48:58;;;;;;;10.40;10.10;;;21.60;99.90;;;;;;6234286;23;20195;-80
2023/09/21 08:51:27;;;;;;;10.40;10.10;;;21.70;99.90;;;;;;6232648;23;20191;-81
2023/09/21 08:53:59;;;;;;;10.45;10.15;;;21.90;99.90;;;;;;6234415;22;20195;-81
2023/09/21 08:56:32;;;;;;;10.50;10.20;;;22.00;99.90;;;;;;6233444;22;20200;-81
2023/09/21 08:59:04;;;;;;;10.55;10.25;;;22.20;99.90;;;;;;6232866;23;20203;-81
2023/09/21 09:01:33;;;;;;;11.30;10.95;;;22.40;99.90;;;;;;6231873;23;20197;-81
2023/09/21 09:04:00;;;;;;;11.15;10.85;;;22.50;99.90;;;;;;6233481;23;20370;-81
2023/09/21 09:06:29;;;;;;;11.43;11.02;;;22.60;99.90;;;;;;6232846;23;20206;-81
2023/09/21 09:08:56;;;;;;;11.63;11.23;;;22.70;99.90;;;;;;6233037;23;20199;-81
2023/09/21 09:11:39;;;;;;;11.77;11.38;;;22.90;99.90;;;;;;6232095;23;20199;-81
2023/09/21 09:14:13;;;;;;;11.25;10.93;;;23.10;99.90;;;;;;6229577;23;20206;-81
2023/09/21 09:16:42;;;;;;;11.50;11.10;;;23.30;99.90;;;;;;6232842;23;20225;-81
2023/09/21 09:19:11;;;;;;;11.60;11.20;;;23.40;99.90;;;;;;6232915;23;20301;-81
2023/09/21 09:21:38;;;;;;;11.30;10.98;;;23.60;99.90;;;;;;6232712;23;20690;-81
2023/09/21 09:24:08;;;;;;;11.57;11.18;;;23.90;99.90;;;;;;6233190;23;20716;-81
2023/09/21 09:26:36;;;;;;;11.27;10.98;;;24.20;99.90;;;;;;6233737;23;20199;-82
2023/09/21 09:29:05;;;;;;;11.48;11.10;;;24.50;99.90;;;;;;6241277;23;20289;-81
2023/09/21 09:31:33;;;;;;;11.70;11.30;;;24.60;99.90;;;;;;6243132;23;20223;-81
2023/09/21 09:34:04;;;;;;;11.70;11.30;;;24.90;99.90;;;;;;6241315;23;20247;-81
2023/09/21 09:36:32;;;;;;;11.50;11.10;;;25.00;99.90;;;;;;6239594;23;20191;-82
2023/09/21 09:39:00;;;;;;;11.60;11.20;;;25.10;99.90;;;;;;6234900;23;20207;-80
2023/09/21 09:41:28;;;;;;;11.40;11.10;;;25.20;99.90;;;;;;6229566;23;20206;-80
2023/09/21 09:44:00;;;;;;;11.45;11.13;;;25.40;99.90;;;;;;6229809;23;20211;-80
2023/09/21 09:46:28;;;;;;;11.20;10.90;;;25.60;99.90;;;;;;6233809;23;20187;-81
2023/09/21 09:49:01;;;;;;;11.20;10.90;;;25.80;99.90;;;;;;6233544;23;20218;-80
2023/09/21 09:51:40;;;;;;;11.10;10.80;;;25.80;99.90;;;;;;6232025;23;20191;-81
2023/09/21 09:54:10;;;;;;;11.10;10.80;;;26.10;99.90;;;;;;6232817;22;20254;-80
2023/09/21 09:56:41;;;;;;;11.27;10.98;;;26.30;99.90;;;;;;6233195;23;20277;-80
2023/09/21 09:59:11;;;;;;;11.20;10.90;;;26.50;99.90;;;;;;6231051;23;20198;-81
2023/09/21 10:01:41;;;;;;;11.10;10.80;;;26.60;99.90;;;;;;6232235;23;20203;-81
2023/09/21 10:04:10;;;;;;;11.25;10.95;;;26.70;99.90;;;;;;6233115;23;20262;-81
2023/09/21 10:06:38;;;;;;;11.15;10.85;;;26.70;99.90;;;;;;6235459;23;20201;-81
2023/09/21 10:09:10;;;;;;;11.10;10.80;;;26.70;99.90;;;;;;6231293;23;20199;-78
2023/09/21 10:11:42;;;;;;;11.10;10.80;;;26.80;99.90;;;;;;6230847;23;20187;-80
2023/09/21 10:14:11;;;;;;;11.18;10.88;;;27.00;99.90;;;;;;6231876;22;20199;-81
2023/09/21 10:16:39;;;;;;;11.32;11.02;;;27.20;99.90;;;;;;6231957;23;20258;-80
2023/09/21 10:19:17;;;;;;;11.00;10.70;;;27.50;99.90;;;;;;6231624;23;20729;-80
2023/09/21 10:21:47;;;;;;;11.30;11.00;;;27.60;99.90;;;;;;6231031;23;20273;-81
2023/09/21 10:24:18;;;;;;;11.10;10.80;;;27.60;99.90;;;;;;6231753;23;20215;-80
2023/09/21 10:26:50;;;;;;;11.15;10.85;;;27.60;99.90;;;;;;6231209;23;20230;-80
2023/09/21 10:29:20;;;;;;;11.30;11.00;;;27.60;99.90;;;;;;6231655;23;20187;-80
2023/09/21 10:31:55;;;;;;;11.50;11.10;;;27.60;99.90;;;;;;6229543;22;20716;-80
2023/09/21 10:34:26;;;;;;;11.10;10.80;;;27.90;99.90;;;;;;6228834;23;20293;-80
2023/09/21 10:37:00;;;;;;;11.20;10.90;;;27.90;99.90;;;;;;6228887;23;20226;-80
2023/09/21 10:39:28;;;;;;;11.32;11.02;;;27.90;99.90;;;;;;6228532;23;20218;-80
2023/09/21 10:42:29;;;;;;;11.32;11.02;;;28.20;99.90;;;;;;6227163;23;20211;-79
2023/09/21 10:45:02;;;;;;;11.13;10.82;;;28.50;99.90;;;;;;6228795;23;20214;-79
2023/09/21 10:47:49;;;;;;;11.27;10.98;;;28.70;99.90;;;;;;6227891;23;20191;-80
2023/09/21 10:50:20;;;;;;;11.25;10.95;;;28.90;99.90;;;;;;6227684;23;20261;-80
2023/09/21 10:52:51;;;;;;;11.13;10.82;;;29.20;99.90;;;;;;6226398;23;20202;-80
2023/09/21 10:55:20;;;;;;;11.10;10.80;;;29.40;99.90;;;;;;6227074;22;20207;-82
2023/09/21 10:57:49;;;;;;;10.98;10.68;;;29.60;99.90;;;;;;6227337;23;20207;-79
2023/09/21 11:00:21;;;;;;;11.20;10.90;;;29.50;99.90;;;;;;6226402;23;20194;-80
2023/09/21 11:02:49;;;;;;;10.93;10.63;;;29.50;99.90;;;;;;6227282;23;20191;-80
2023/09/21 11:05:20;;;;;;;11.20;10.90;;;29.70;99.90;;;;;;6227543;23;20226;-80
2023/09/21 11:07:50;;;;;;;11.10;10.80;;;29.70;99.90;;;;;;6233634;23;20191;-79
2023/09/21 11:10:18;;;;;;;10.73;10.43;;;29.40;99.90;;;;;;6231726;23;20187;-80
2023/09/21 11:12:45;;;;;;;10.80;10.50;;;29.40;99.90;;;;;;6236777;23;20225;-80
2023/09/21 11:15:37;;;;;;;11.27;10.98;;;29.40;99.90;;;;;;6236751;23;20222;-81
2023/09/21 11:18:05;;;;;;;11.00;10.70;;;29.90;99.90;;;;;;6233472;23;20222;-80
2023/09/21 11:20:35;;;;;;;10.90;10.60;;;29.80;99.90;;;;;;6233652;23;20191;-80
2023/09/21 11:23:03;;;;;;;11.43;11.10;;;29.70;99.90;;;;;;6233386;23;20230;-81
2023/09/21 11:25:31;;;;;;;11.18;10.88;;;29.70;99.90;;;;;;6233760;22;20198;-80
2023/09/21 11:27:59;;;;;;;10.98;10.68;;;30.00;99.90;;;;;;6233709;23;20195;-80
2023/09/21 11:30:26;;;;;;;11.27;10.98;;;30.30;99.90;;;;;;6232742;23;20196;-80
2023/09/21 11:32:55;;;;;;;11.18;10.88;;;30.40;99.90;;;;;;6232081;23;20195;-80
2023/09/21 11:35:24;;;;;;;11.15;10.85;;;30.50;99.90;;;;;;6232996;23;20203;-80
2023/09/21 11:37:53;;;;;;;10.85;10.55;;;30.60;99.90;;;;;;6232575;23;20195;-80
2023/09/21 11:40:22;;;;;;;10.80;10.50;;;30.40;99.90;;;;;;6232659;23;20261;-80
2023/09/21 11:42:50;;;;;;;11.00;10.70;;;30.30;99.90;;;;;;6232603;23;20203;-80
2023/09/21 11:45:19;;;;;;;11.15;10.85;;;30.30;99.90;;;;;;6232250;23;20301;-80
2023/09/21 11:47:50;;;;;;;11.32;11.02;;;30.40;99.90;;;;;;6232153;23;20235;-80
2023/09/21 11:50:26;;;;;;;11.10;10.80;;;30.80;99.90;;;;;;6232461;23;20246;-81
2023/09/21 11:52:56;;;;;;;11.15;10.85;;;30.80;99.90;;;;;;6232584;23;20194;-80
2023/09/21 11:55:24;;;;;;;11.10;10.80;;;31.10;99.90;;;;;;6233378;22;20234;-80
2023/09/21 11:57:52;;;;;;;10.93;10.63;;;31.10;99.90;;;;;;6232422;23;20218;-80
2023/09/21 12:00:37;;;;;;;11.02;10.73;;;31.40;99.90;;;;;;6232699;23;20203;-80
2023/09/21 12:03:04;;;;;;;11.00;10.70;;;31.70;99.90;;;;;;6232314;23;20195;-81
2023/09/21 12:05:32;;;;;;;10.65;10.35;;;31.60;99.90;;;;;;6231876;23;20199;-81
2023/09/21 12:08:02;;;;;;;10.95;10.65;;;31.40;99.90;;;;;;6233065;22;20202;-81
2023/09/21 12:10:29;;;;;;;10.95;10.65;;;31.30;99.90;;;;;;6232579;23;20182;-80
2023/09/21 12:12:57;;;;;;;10.98;10.68;;;31.10;99.90;;;;;;6233634;23;20195;-81
2023/09/21 12:15:24;;;;;;;10.98;10.68;;;31.20;99.90;;;;;;6233073;23;20203;-80
2023/09/21 12:17:52;;;;;;;11.10;10.80;;;31.60;99.90;;;;;;6232921;23;20206;-81
2023/09/21 12:20:21;;;;;;;10.98;10.68;;;31.80;99.90;;;;;;6232562;23;20206;-81
2023/09/21 12:22:48;;;;;;;11.32;11.02;;;32.10;99.90;;;;;;6232570;23;20191;-80
2023/09/21 12:25:17;;;;;;;11.32;11.02;;;32.20;99.90;;;;;;6231375;23;20245;-81
2023/09/21 12:27:45;;;;;;;11.25;10.95;;;32.00;99.90;;;;;;6232415;23;20198;-81
2023/09/21 12:30:14;;;;;;;11.45;11.15;;;31.70;99.90;;;;;;6232164;23;20269;-80
2023/09/21 12:32:41;;;;;;;11.82;11.43;;;31.50;99.90;;;;;;6232721;23;20323;-81
2023/09/21 12:35:09;;;;;;;11.35;11.05;;;31.40;99.90;;;;;;6232636;23;20206;-81
2023/09/21 12:37:37;;;;;;;11.35;11.05;;;31.60;99.90;;;;;;6231242;22;20272;-80
2023/09/21 12:40:07;;;;;;;11.20;10.90;;;31.60;99.90;;;;;;6231725;23;20195;-80
2023/09/21 12:42:35;;;;;;;11.30;11.00;;;31.50;99.90;;;;;;6232028;23;20199;-81
2023/09/21 12:45:03;;;;;;;11.18;10.88;;;31.30;99.90;;;;;;6232611;23;20211;-80
2023/09/21 12:47:31;;;;;;;11.10;10.80;;;31.10;99.90;;;;;;6233668;23;20203;-81
2023/09/21 12:49:58;;;;;;;10.88;10.57;;;31.10;99.90;;;;;;6233053;23;20195;-81
2023/09/21 12:52:25;;;;;;;10.90;10.60;;;31.20;99.90;;;;;;6233277;23;20195;-80
2023/09/21 12:54:52;;;;;;;11.20;10.90;;;31.60;99.90;;;;;;6232202;22;20211;-81
2023/09/21 12:57:19;;;;;;;11.30;11.00;;;31.70;99.90;;;;;;6232580;23;20195;-80
2023/09/21 12:59:48;;;;;;;11.30;11.00;;;31.80;99.90;;;;;;6233348;22;20187;-81
2023/09/21 13:02:15;;;;;;;11.40;11.05;;;31.90;99.90;;;;;;6232574;23;20245;-80
2023/09/21 13:04:43;;;;;;;11.27;10.98;;;32.20;99.90;;;;;;6233403;23;20234;-80
2023/09/21 13:07:10;;;;;;;11.38;11.07;;;32.50;99.90;;;;;;6233596;23;20203;-80
2023/09/21 13:09:37;;;;;;;11.48;11.18;;;32.50;99.90;;;;;;6234641;23;20195;-80
2023/09/21 13:12:04;;;;;;;11.15;10.85;;;32.50;99.90;;;;;;6236367;23;20195;-80
2023/09/21 13:14:32;;;;;;;11.40;11.10;;;32.80;99.90;;;;;;6235592;23;20246;-81
2023/09/21 13:17:04;;;;;;;11.10;10.80;;;32.60;99.90;;;;;;6234067;23;20205;-80
2023/09/21 13:19:31;;;;;;;11.18;10.88;;;32.10;99.90;;;;;;6233421;22;20251;-80
2023/09/21 13:21:58;;;;;;;11.27;10.98;;;31.90;99.90;;;;;;6229500;23;20218;-80
2023/09/21 13:24:25;;;;;;;11.20;10.90;;;31.90;99.90;;;;;;6231320;23;20199;-80
2023/09/21 13:26:52;;;;;;;11.32;11.02;;;31.80;99.90;;;;;;6232140;23;20203;-79
2023/09/21 13:29:20;;;;;;;11.80;11.40;;;32.10;99.90;;;;;;6233024;23;20268;-80
2023/09/21 13:31:47;;;;;;;11.43;11.13;;;32.40;99.90;;;;;;6232867;23;20285;-80
2023/09/21 13:34:18;;;;;;;11.38;11.07;;;32.50;99.90;;;;;;6231986;23;20198;-79
2023/09/21 13:36:45;;;;;;;11.10;10.80;;;32.90;99.90;;;;;;6230435;23;20257;-80
2023/09/21 13:39:13;;;;;;;11.10;10.80;;;33.10;99.90;;;;;;6229471;23;20242;-81
2023/09/21 13:41:40;;;;;;;10.43;10.13;;;33.20;99.90;;;;;;6229301;23;20191;-80
2023/09/21 13:44:10;;;;;;;10.73;10.43;;;33.20;99.90;;;;;;6229680;23;20199;-80
2023/09/21 13:46:37;;;;;;;10.40;10.10;;;33.20;99.90;;;;;;6230155;23;20210;-80
2023/09/21 13:49:04;;;;;;;10.50;10.20;;;33.10;99.90;;;;;;6229774;23;20214;-80
2023/09/21 13:51:33;;;;;;;10.45;10.15;;;33.10;99.90;;;;;;6229188;23;20222;-80
2023/09/21 13:54:01;;;;;;;10.50;10.20;;;33.20;99.90;;;;;;6229053;22;20205;-80
2023/09/21 19:56:07;;;;;;;10.13;9.82;;;21.60;99.90;;;;;;6209214;22;20285;-80
2023/09/21 19:58:34;;;;;;;9.90;9.60;;;21.60;99.90;;;;;;6255873;22;20794;-81
2023/09/21 20:01:01;;;;;;;10.00;9.70;;;21.50;99.90;;;;;;6264158;22;20198;-81
2023/09/21 20:03:28;;;;;;;9.93;9.63;;;21.50;99.90;;;;;;6262868;22;20201;-80
2023/09/21 20:05:55;;;;;;;9.90;9.60;;;21.50;99.90;;;;;;6259546;22;20273;-80
2023/09/21 20:08:23;;;;;;;9.70;9.40;;;21.50;99.90;;;;;;6260802;22;20194;-80
2023/09/21 20:10:50;;;;;;;9.70;9.40;;;21.60;99.90;;;;;;6262066;22;20206;-80
2023/09/21 20:13:19;;;;;;;9.52;9.23;;;21.60;99.90;;;;;;6263334;22;20221;-80
2023/09/21 20:15:46;;;;;;;9.60;9.30;;;21.60;99.90;;;;;;6263176;22;20263;-80
2023/09/21 20:18:13;;;;;;;9.82;9.52;;;21.60;99.90;;;;;;6263544;22;20178;-80
2023/09/21 20:20:40;;;;;;;10.00;9.70;;;21.50;99.90;;;;;;6263781;22;20309;-80
2023/09/21 20:23:07;;;;;;;10.05;9.75;;;21.40;99.90;;;;;;6264214;22;20202;-80
2023/09/21 20:25:37;;;;;;;9.82;9.52;;;21.40;99.90;;;;;;6263739;22;20198;-80
2023/09/21 20:28:06;;;;;;;10.10;9.80;;;21.40;99.90;;;;;;6262187;22;20313;-80
2023/09/21 20:30:35;;;;;;;9.90;9.60;;;21.40;99.90;;;;;;6259172;22;20206;-79
2023/09/21 20:33:02;;;;;;;10.20;9.90;;;21.30;99.90;;;;;;6260128;22;20196;-79
2023/09/21 20:35:29;;;;;;;10.02;9.73;;;21.30;99.90;;;;;;6259746;22;20198;-80
2023/09/21 20:37:56;;;;;;;10.10;9.80;;;21.30;99.90;;;;;;6258994;22;20236;-80
2023/09/21 20:40:23;;;;;;;9.90;9.60;;;21.20;99.90;;;;;;6260969;22;20222;-80
2023/09/21 20:42:50;;;;;;;9.95;9.65;;;21.20;99.90;;;;;;6263659;22;20201;-81
2023/09/21 20:45:18;;;;;;;10.00;9.70;;;21.20;99.90;;;;;;6265126;22;20202;-80
2023/09/21 20:47:46;;;;;;;9.98;9.68;;;21.20;99.90;;;;;;6263627;22;20229;-80
2023/09/21 20:50:13;;;;;;;10.10;9.80;;;21.20;99.90;;;;;;6264928;22;20286;-80
2023/09/21 20:52:40;;;;;;;9.68;9.38;;;21.30;99.90;;;;;;6264294;22;20202;-80
2023/09/21 20:55:08;;;;;;;9.90;9.60;;;21.30;99.90;;;;;;6263920;22;20206;-80
2023/09/21 20:57:35;;;;;;;10.20;9.90;;;21.30;99.90;;;;;;6264042;22;20194;-80
2023/09/21 21:00:04;;;;;;;10.20;9.90;;;21.30;99.90;;;;;;6263960;22;20194;-80
2023/09/21 21:02:32;;;;;;;9.93;9.63;;;20.90;99.90;;;;;;6262023;22;20214;-79
2023/09/21 21:05:00;;;;;;;10.10;9.80;;;20.70;99.90;;;;;;6260399;22;20205;-79
2023/09/21 21:07:29;;;;;;;10.27;9.98;;;20.30;99.90;;;;;;6260940;22;20237;-79
2023/09/21 21:09:56;;;;;;;10.48;10.18;;;20.00;99.90;;;;;;6259403;22;20209;-80
2023/09/21 21:12:23;;;;;;;10.80;10.50;;;19.70;99.90;;;;;;6260642;22;20209;-80
2023/09/21 21:14:50;;;;;;;10.70;10.40;;;19.30;99.90;;;;;;6260304;22;20194;-80
2023/09/21 21:17:17;;;;;;;10.60;10.30;;;19.10;99.90;;;;;;6260257;22;20190;-80
2023/09/21 21:19:44;;;;;;;10.95;10.65;;;18.90;99.90;;;;;;6260556;22;20195;-80
2023/09/21 21:22:13;;;;;;;11.07;10.77;;;18.70;99.90;;;;;;6258995;22;20209;-79
2023/09/21 21:24:40;;;;;;;10.85;10.55;;;18.20;99.90;;;;;;6258777;22;20225;-80
2023/09/21 21:27:07;;;;;;;10.90;10.60;;;17.90;99.90;;;;;;6259405;22;20245;-80
2023/09/21 21:29:34;;;;;;;10.70;10.40;;;17.70;99.90;;;;;;6258306;22;20280;-79
2023/09/21 21:32:01;;;;;;;10.50;10.20;;;17.50;99.90;;;;;;6258185;22;20217;-79
2023/09/21 21:34:28;;;;;;;10.30;10.00;;;17.30;99.90;;;;;;6258136;22;20221;-79
2023/09/21 21:36:56;;;;;;;10.60;10.30;;;17.20;99.90;;;;;;6258558;22;20196;-79
2023/09/21 21:39:24;;;;;;;10.07;9.77;;;17.10;99.90;;;;;;6259486;22;20204;-79
2023/09/21 21:41:51;;;;;;;10.20;9.90;;;17.00;99.90;;;;;;6258472;22;20194;-79
2023/09/21 21:44:18;;;;;;;9.77;9.48;;;17.00;99.90;;;;;;6258846;22;20205;-79
2023/09/21 21:46:45;;;;;;;10.10;9.80;;;16.80;99.90;;;;;;6258740;22;20210;-79
2023/09/21 21:49:12;;;;;;;10.00;9.70;;;16.80;99.90;;;;;;6259467;22;20265;-79
2023/09/21 21:51:39;;;;;;;10.07;9.77;;;16.70;99.90;;;;;;6259732;22;20218;-80
2023/09/21 21:54:06;;;;;;;9.88;9.57;;;16.70;99.90;;;;;;6261623;22;20198;-80
2023/09/21 21:56:35;;;;;;;9.70;9.40;;;16.70;99.90;;;;;;6261845;22;20194;-80
2023/09/21 21:59:03;;;;;;;10.00;9.70;;;16.70;99.90;;;;;;6260199;22;20206;-80
2023/09/21 22:01:30;;;;;;;10.15;9.85;;;16.60;99.90;;;;;;6259620;22;20237;-80
2023/09/21 22:03:57;;;;;;;9.65;9.35;;;16.50;99.90;;;;;;6259721;22;20202;-80
2023/09/21 22:06:25;;;;;;;9.95;9.65;;;16.50;99.90;;;;;;6262266;22;20228;-80
2023/09/21 22:08:54;;;;;;;10.00;9.70;;;16.50;99.90;;;;;;6262528;22;20194;-80
2023/09/21 22:11:21;;;;;;;9.80;9.50;;;16.50;99.90;;;;;;6260927;22;20198;-80
2023/09/21 22:13:49;;;;;;;9.68;9.38;;;16.50;99.90;;;;;;6260910;22;20229;-80
2023/09/21 22:16:16;;;;;;;9.35;9.05;;;16.50;99.90;;;;;;6262579;22;20209;-80
2023/09/21 22:18:44;;;;;;;9.65;9.35;;;16.50;99.90;;;;;;6262621;22;20241;-80
2023/09/21 22:21:11;;;;;;;9.30;9.00;;;16.50;99.90;;;;;;6262844;22;20202;-80
2023/09/21 22:23:38;;;;;;;9.52;9.23;;;16.60;99.90;;;;;;6262859;22;20265;-80
2023/09/21 22:26:09;;;;;;;9.10;8.80;;;16.70;99.90;;;;;;6262296;22;20232;-80
2023/09/21 22:28:36;;;;;;;9.38;9.07;;;16.70;99.90;;;;;;6263470;22;20234;-80
2023/09/21 22:31:05;;;;;;;9.25;8.95;;;16.70;99.90;;;;;;6265578;22;20215;-80
2023/09/21 22:33:32;;;;;;;9.50;9.20;;;16.80;99.90;;;;;;6265320;22;20190;-80
2023/09/21 22:36:03;;;;;;;9.75;9.45;;;16.80;99.90;;;;;;6266179;22;20202;-80
2023/09/21 22:38:30;;;;;;;9.32;9.02;;;16.90;99.90;;;;;;6265235;22;20197;-79
2023/09/21 22:40:58;;;;;;;9.20;8.90;;;16.90;99.90;;;;;;6264345;22;20203;-80
2023/09/21 22:43:25;;;;;;;9.27;8.98;;;16.90;99.90;;;;;;6263915;22;20202;-79
2023/09/21 22:45:52;;;;;;;9.32;9.02;;;16.90;99.90;;;;;;6263549;22;20214;-80
2023/09/21 22:48:22;;;;;;;9.60;9.30;;;16.90;99.90;;;;;;6263689;22;20249;-79
2023/09/21 22:50:56;;;;;;;9.45;9.15;;;16.90;99.90;;;;;;6264011;22;20202;-81
2023/09/21 22:53:24;;;;;;;9.35;9.05;;;16.90;99.90;;;;;;6262650;22;20233;-80
2023/09/21 22:55:52;;;;;;;9.45;9.15;;;16.90;99.90;;;;;;6263561;22;20214;-80
2023/09/21 22:58:19;;;;;;;9.25;8.95;;;16.90;99.90;;;;;;6263756;22;20190;-80
2023/09/21 23:00:56;;;;;;;9.18;8.88;;;17.00;99.90;;;;;;6263160;22;20218;-80
2023/09/21 23:03:25;;;;;;;9.60;9.30;;;17.00;99.90;;;;;;6265381;22;20189;-80
2023/09/21 23:05:52;;;;;;;9.27;8.98;;;17.00;99.90;;;;;;6262575;22;20210;-80
2023/09/21 23:08:20;;;;;;;9.40;9.10;;;17.00;99.90;;;;;;6265755;22;20200;-79
2023/09/21 23:10:48;;;;;;;9.10;8.80;;;17.00;99.90;;;;;;6265225;22;20190;-81
2023/09/21 23:13:16;;;;;;;9.30;9.00;;;16.90;99.90;;;;;;6264180;22;20210;-80
2023/09/21 23:15:44;;;;;;;9.38;9.07;;;16.90;99.90;;;;;;6265408;22;20273;-80
2023/09/21 23:18:11;;;;;;;9.50;9.20;;;16.90;99.90;;;;;;6264779;22;20268;-81
2023/09/21 23:20:40;;;;;;;9.45;9.15;;;16.90;99.90;;;;;;6258382;22;20202;-79
2023/09/21 23:23:07;;;;;;;9.40;9.10;;;16.90;99.90;;;;;;6256777;22;20209;-79
2023/09/21 23:25:34;;;;;;;9.32;9.02;;;16.90;99.90;;;;;;6257573;22;20234;-79
2023/09/21 23:28:03;;;;;;;9.13;8.82;;;16.90;99.90;;;;;;6257907;22;20194;-79
2023/09/21 23:30:30;;;;;;;8.85;8.65;;;16.90;99.90;;;;;;6257957;22;20202;-79
2023/09/21 23:32:58;;;;;;;9.27;8.98;;;16.90;99.90;;;;;;6257361;22;20198;-79
2023/09/21 23:35:25;;;;;;;9.27;8.98;;;16.90;99.90;;;;;;6257867;22;20210;-80
2023/09/21 23:37:53;;;;;;;9.30;9.00;;;16.90;99.90;;;;;;6256722;22;20225;-80
2023/09/21 23:40:26;;;;;;;9.48;9.18;;;16.80;99.90;;;;;;6258187;22;20209;-79
2023/09/21 23:42:54;;;;;;;9.50;9.20;;;16.80;99.90;;;;;;6256465;22;20197;-79
2023/09/21 23:45:22;;;;;;;9.20;8.90;;;16.80;99.90;;;;;;6256274;22;20227;-79
2023/09/21 23:47:48;;;;;;;9.10;8.80;;;16.80;99.90;;;;;;6255764;22;20210;-79
2023/09/21 23:50:16;;;;;;;9.10;8.80;;;16.80;99.90;;;;;;6256221;22;20260;-79
2023/09/21 23:52:45;;;;;;;9.35;9.05;;;16.80;99.90;;;;;;6256854;22;20191;-79
2023/09/21 23:55:15;;;;;;;9.60;9.30;;;16.70;99.90;;;;;;6257309;22;20234;-79
2023/09/21 23:57:43;;;;;;;9.63;9.32;;;16.70;99.90;;;;;;6256876;22;20194;-80
